.
WxDataArchive / Data Records for 2015-11-11
2015-11-10 November 2015 2015-11-12

Data Records for Wednesday, 11 November 2015

Time	Temp	Chill	HIndex	Humid	Dewpt	 Wind 	HiWind	WindDir	Rain 	Barom
-----	----	-----	------	-----	-----	------	------	-------	-----	-----
00:00	36.5	36.5	36.5	92	34.4	0	0	---	0.00	30.004 
00:05	37.0	37.0	37.0	92	34.9	0	0	---	0.00	30.004 
00:10	37.3	37.3	37.3	93	35.5	0	0	---	0.00	30.004 
00:15	37.6	37.6	37.6	93	35.8	0	0	---	0.00	30.000 
00:20	38.0	38.0	38.0	93	36.2	0	0	---	0.00	30.000 
00:25	38.5	38.5	38.5	93	36.7	0	0	---	0.00	30.000 
00:30	38.6	38.6	38.6	93	36.8	0	0	---	0.00	29.995 
00:35	38.9	38.9	38.9	93	37.1	0	0	---	0.00	29.995 
00:40	39.1	39.1	39.1	93	37.2	0	0	---	0.00	29.995 
00:45	39.3	39.3	39.3	93	37.4	0	0	---	0.00	29.993 
00:50	39.3	39.3	39.3	94	37.7	0	1	292	0.00	29.993 
00:55	39.5	39.5	39.5	93	37.6	0	1	292	0.00	29.993 
01:00	39.5	39.5	39.5	93	37.6	0	0	---	0.00	29.998 
01:05	39.5	39.5	39.5	93	37.6	0	0	---	0.00	29.998 
01:10	39.3	39.3	39.3	93	37.4	0	0	---	0.00	29.998 
01:15	39.2	39.2	39.2	93	37.3	0	0	---	0.00	29.999 
01:20	39.1	39.1	39.1	93	37.2	0	0	---	0.00	29.999 
01:25	39.1	39.1	39.1	93	37.2	0	0	---	0.00	29.999 
01:30	39.1	39.1	39.1	93	37.2	0	0	---	0.00	29.999 
01:35	38.9	38.9	38.9	93	37.1	0	0	---	0.00	29.999 
01:40	38.8	38.8	38.8	93	37.0	0	0	---	0.00	29.999 
01:45	38.8	38.8	38.8	93	37.0	0	0	---	0.00	29.998 
01:50	38.8	38.8	38.8	93	37.0	0	0	---	0.00	29.998 
01:55	38.9	38.9	38.9	93	37.1	0	0	---	0.00	29.998 
02:00	38.9	38.9	38.9	93	37.1	0	0	---	0.00	29.997 
02:05	39.1	39.1	39.1	93	37.2	0	0	---	0.00	29.997 
02:10	38.9	38.9	38.9	93	37.1	0	0	---	0.00	29.997 
02:15	38.8	38.8	38.8	93	37.0	0	0	---	0.00	29.995 
02:20	38.6	38.6	38.6	93	36.8	0	0	---	0.00	29.995 
02:25	38.3	38.3	38.3	93	36.5	0	0	---	0.00	29.995 
02:30	38.0	38.0	38.0	93	36.2	0	0	---	0.00	29.997 
02:35	37.8	37.8	37.8	92	35.7	0	0	---	0.00	29.997 
02:40	37.6	37.6	37.6	93	35.8	0	0	---	0.00	29.997 
02:45	37.5	37.5	37.5	93	35.7	0	0	---	0.00	29.995 
02:50	37.5	37.5	37.5	93	35.7	0	0	---	0.00	29.995 
02:55	37.5	37.5	37.5	93	35.7	0	0	---	0.00	29.995 
03:00	37.5	37.5	37.5	93	35.7	0	0	---	0.00	29.995 
03:05	37.3	37.3	37.3	93	35.5	0	0	---	0.00	29.995 
03:10	37.2	37.2	37.2	93	35.4	0	0	---	0.00	29.995 
03:15	36.9	36.9	36.9	93	35.1	0	0	---	0.00	30.000 
03:20	36.8	36.8	36.8	93	35.0	0	0	---	0.00	30.000 
03:25	36.6	36.6	36.6	93	34.8	0	0	---	0.00	30.000 
03:30	36.3	36.3	36.3	93	34.5	0	0	---	0.00	29.995 
03:35	36.2	36.2	36.2	93	34.4	0	0	---	0.00	29.995 
03:40	36.0	36.0	36.0	93	34.2	0	0	---	0.00	29.995 
03:45	36.0	36.0	36.0	93	34.2	0	0	---	0.00	29.996 
03:50	35.8	35.8	35.8	93	34.0	0	0	---	0.00	29.996 
03:55	35.6	35.6	35.6	93	33.8	0	0	---	0.00	29.996 
04:00	35.3	35.3	35.3	93	33.5	0	0	---	0.00	29.999 
04:05	35.2	35.2	35.2	93	33.4	0	0	---	0.00	29.999 
04:10	35.0	35.0	35.0	93	33.2	0	0	---	0.00	29.999 
04:15	34.9	34.9	34.9	93	33.1	0	0	---	0.00	30.002 
04:20	34.6	34.6	34.6	93	32.8	0	0	---	0.00	30.002 
04:25	34.4	34.4	34.4	93	32.6	0	0	---	0.00	30.002 
04:30	34.3	34.3	34.3	93	32.5	0	0	---	0.00	30.004 
04:35	34.0	34.0	34.0	93	32.2	0	0	---	0.00	30.004 
04:40	33.8	33.8	33.8	93	32.0	0	0	---	0.00	30.004 
04:45	33.7	33.7	33.7	93	31.9	0	0	---	0.00	30.005 
04:50	33.5	33.5	33.5	93	31.7	0	0	---	0.00	30.005 
04:55	33.4	33.4	33.4	93	31.6	0	0	---	0.00	30.005 
05:00	33.2	33.2	33.2	93	31.4	0	0	---	0.00	30.011 
05:05	33.1	33.1	33.1	93	31.3	0	0	---	0.00	30.011 
05:10	32.9	32.9	32.9	93	31.1	0	0	---	0.00	30.011 
05:15	32.8	32.8	32.8	93	31.0	0	0	---	0.00	30.023 
05:20	32.7	32.7	32.7	93	30.9	0	0	---	0.00	30.023 
05:25	32.5	32.5	32.5	93	30.7	0	0	---	0.00	30.023 
05:30	32.4	32.4	32.4	93	30.6	0	0	---	0.00	30.017 
05:35	32.2	32.2	32.2	93	30.4	0	0	---	0.00	30.017 
05:40	32.2	32.2	32.2	93	30.4	0	0	---	0.00	30.017 
05:45	32.1	32.1	32.1	93	30.3	0	0	---	0.00	30.022 
05:50	32.1	32.1	32.1	93	30.3	0	0	---	0.00	30.022 
05:55	32.1	32.1	32.1	93	30.3	0	0	---	0.00	30.022 
06:00	31.9	31.9	31.9	93	30.1	0	0	---	0.00	30.023 
06:05	31.9	31.9	31.9	93	30.1	0	0	---	0.00	30.023 
06:10	31.8	31.8	31.8	93	30.0	0	0	---	0.00	30.023 
06:15	31.5	31.5	31.5	93	29.7	0	0	---	0.00	30.026 
06:20	31.3	31.3	31.3	93	29.5	0	0	---	0.00	30.026 
06:25	31.2	31.2	31.2	93	29.4	0	0	---	0.00	30.026 
06:30	31.0	31.0	31.0	93	29.2	0	0	---	0.00	30.030 
06:35	31.0	31.0	31.0	93	29.2	0	0	---	0.00	30.030 
06:40	30.9	30.9	30.9	93	29.1	0	0	---	0.00	30.030 
06:45	30.7	30.7	30.7	93	28.9	0	0	---	0.00	30.031 
06:50	30.7	30.7	30.7	93	28.9	0	0	---	0.00	30.031 
06:55	30.7	30.7	30.7	93	28.9	0	0	---	0.00	30.031 
07:00	30.6	30.6	30.6	93	28.8	0	0	---	0.00	30.030 
07:05	30.6	30.6	30.6	93	28.8	0	0	---	0.00	30.030 
07:10	30.6	30.6	30.6	93	28.8	0	0	---	0.00	30.030 
07:15	30.6	30.6	30.6	93	28.8	0	0	---	0.00	30.030 
07:20	30.6	30.6	30.6	93	28.8	0	0	---	0.00	30.030 
07:25	30.6	30.6	30.6	93	28.8	0	0	---	0.00	30.030 
07:30	30.7	30.7	30.7	93	28.9	0	0	---	0.00	30.029 
07:35	30.7	30.7	30.7	93	28.9	0	0	---	0.00	30.029 
07:40	30.7	30.7	30.7	94	29.2	0	0	---	0.00	30.029 
07:45	30.9	30.9	30.9	94	29.4	0	0	---	0.00	30.029 
07:50	31.2	31.2	31.2	94	29.7	0	0	---	0.00	30.029 
07:55	31.3	31.3	31.3	94	29.8	0	0	---	0.00	30.029 
08:00	31.5	31.5	31.5	94	30.0	0	0	---	0.00	30.029 
08:05	31.8	31.8	31.8	94	30.3	0	0	---	0.00	30.029 
08:10	31.9	31.9	31.9	94	30.4	0	0	---	0.00	30.029 
08:15	32.2	32.2	32.2	94	30.7	0	0	---	0.00	30.027 
08:20	32.5	32.5	32.5	94	31.0	0	0	---	0.00	30.027 
08:25	32.9	32.9	32.9	95	31.6	0	0	---	0.00	30.027 
08:30	33.4	33.4	33.4	94	31.9	0	0	---	0.00	30.032 
08:35	33.5	33.5	33.5	94	32.0	0	0	---	0.00	30.032 
08:40	33.8	33.8	33.8	94	32.3	0	0	---	0.00	30.032 
08:45	34.3	34.3	34.3	95	33.0	0	0	---	0.00	30.031 
08:50	34.9	34.9	34.9	95	33.6	0	0	---	0.00	30.031 
08:55	35.3	35.3	35.3	95	34.0	0	0	---	0.00	30.031 
09:00	36.2	36.2	36.2	96	35.2	0	0	---	0.00	30.030 
09:05	37.0	37.0	37.0	96	36.0	0	0	---	0.00	30.030 
09:10	37.8	37.8	37.8	96	36.8	0	0	---	0.00	30.030 
09:15	38.5	38.5	38.5	96	37.5	0	0	---	0.00	30.031 
09:20	39.2	39.2	39.2	96	38.2	0	0	---	0.00	30.031 
09:25	39.9	39.9	39.9	96	38.9	0	0	---	0.00	30.031 
09:30	40.1	40.1	40.1	95	38.8	0	1	292	0.00	30.026 
09:35	40.2	40.2	40.2	95	38.9	0	0	---	0.00	30.026 
09:40	40.6	40.6	40.6	95	39.3	0	0	---	0.00	30.026 
09:45	41.1	41.1	41.1	95	39.8	0	2	292	0.00	30.024 
09:50	41.3	41.3	41.3	95	40.0	0	1	292	0.00	30.024 
09:55	41.9	41.9	41.9	95	40.6	0	1	292	0.00	30.024 
10:00	42.5	42.5	42.5	94	40.9	0	2	292	0.00	30.018 
10:05	42.9	42.9	42.9	94	41.3	0	1	202	0.00	30.018 
10:10	43.5	43.5	43.5	93	41.6	0	2	202	0.00	30.018 
10:15	44.1	44.1	44.1	92	41.9	0	1	202	0.00	30.015 
10:20	44.6	44.6	44.6	91	42.1	0	1	202	0.00	30.015 
10:25	45.4	45.4	45.4	89	42.3	0	1	202	0.00	30.015 
10:30	46.0	46.0	46.0	87	42.4	0	2	202	0.00	30.011 
10:35	46.5	46.5	46.5	85	42.2	0	2	202	0.00	30.011 
10:40	47.3	47.3	47.3	82	42.1	0	1	202	0.00	30.011 
10:45	47.9	47.9	47.9	80	42.0	0	3	202	0.00	30.005 
10:50	48.3	48.3	48.3	77	41.4	1	3	135	0.00	30.005 
10:55	48.8	48.8	48.8	74	40.9	0	2	135	0.00	30.005 
11:00	49.2	49.2	49.2	73	40.9	0	2	135	0.00	30.001 
11:05	49.5	49.5	49.5	70	40.1	0	2	135	0.00	30.001 
11:10	49.6	49.6	49.6	69	39.9	0	4	90	0.00	30.001 
11:15	49.9	49.9	49.9	68	39.8	1	4	90	0.00	29.997 
11:20	50.4	50.4	50.4	68	40.2	0	2	90	0.00	29.997 
11:25	51.0	51.0	51.0	66	40.0	1	3	90	0.00	29.997 
11:30	51.6	51.6	51.6	65	40.2	1	3	90	0.00	29.986 
11:35	52.0	52.0	52.0	63	39.8	1	3	90	0.00	29.986 
11:40	52.5	52.5	52.5	63	40.3	1	3	90	0.00	29.986 
11:45	52.9	52.9	52.9	62	40.2	1	5	90	0.00	29.981 
11:50	53.2	53.2	53.2	62	40.5	1	5	90	0.00	29.981 
11:55	53.6	53.6	53.6	60	40.1	1	3	90	0.00	29.981 
12:00	54.1	54.1	54.1	59	40.1	0	4	90	0.00	29.972 
12:05	54.5	54.5	54.5	58	40.0	1	4	90	0.00	29.972 
12:10	54.7	54.7	54.7	59	40.7	1	3	112	0.00	29.972 
12:15	55.0	55.0	55.0	58	40.5	0	2	112	0.00	29.962 
12:20	55.1	55.1	55.1	57	40.1	1	3	135	0.00	29.962 
12:25	55.1	55.1	55.1	57	40.1	1	4	90	0.00	29.962 
12:30	55.1	55.1	55.1	57	40.1	1	3	22	0.00	29.954 
12:35	55.1	55.1	55.1	57	40.1	1	4	135	0.00	29.954 
12:40	55.3	55.3	55.3	56	39.9	1	4	135	0.00	29.954 
12:45	55.4	55.4	55.4	56	40.0	1	6	90	0.00	29.948 
12:50	55.7	55.7	55.7	57	40.7	1	3	90	0.00	29.948 
12:55	55.9	55.9	55.9	57	40.9	1	3	112	0.00	29.948 
13:00	56.0	56.0	56.0	57	41.0	0	3	315	0.00	29.934 
13:05	56.2	56.2	56.2	57	41.2	0	3	0	0.00	29.934 
13:10	56.3	56.3	56.3	57	41.3	1	3	45	0.00	29.934 
13:15	56.5	56.5	56.5	56	41.0	1	4	112	0.00	29.923 
13:20	56.3	56.3	56.3	56	40.8	1	3	68	0.00	29.923 
13:25	56.3	56.3	56.3	54	39.9	1	4	135	0.00	29.923 
13:30	56.3	56.3	56.3	55	40.3	1	4	112	0.00	29.916 
13:35	56.3	56.3	56.3	55	40.3	1	5	90	0.00	29.916 
13:40	56.5	56.5	56.5	55	40.5	1	4	112	0.00	29.916 
13:45	56.6	56.6	56.6	55	40.6	1	3	90	0.00	29.905 
13:50	56.9	56.9	56.9	55	40.9	1	6	112	0.00	29.905 
13:55	57.0	57.0	57.0	55	41.0	1	3	112	0.00	29.905 
14:00	57.0	57.0	57.0	56	41.5	0	2	112	0.00	29.892 
14:05	57.0	57.0	57.0	56	41.5	1	5	135	0.00	29.892 
14:10	57.2	57.2	57.2	57	42.1	1	3	135	0.00	29.892 
14:15	57.6	57.6	57.6	56	42.0	1	4	135	0.00	29.883 
14:20	57.8	57.8	57.8	56	42.2	1	6	112	0.00	29.883 
14:25	57.6	57.6	57.6	56	42.0	1	4	135	0.00	29.883 
14:30	57.5	57.5	57.5	56	41.9	1	4	112	0.00	29.881 
14:35	57.2	57.2	57.2	57	42.1	1	4	135	0.00	29.881 
14:40	57.2	57.2	57.2	58	42.6	1	6	90	0.00	29.881 
14:45	57.3	57.3	57.3	57	42.2	1	5	135	0.00	29.878 
14:50	57.3	57.3	57.3	57	42.2	1	3	90	0.00	29.878 
14:55	57.2	57.2	57.2	58	42.6	1	3	90	0.00	29.878 
15:00	57.2	57.2	57.2	57	42.1	1	6	90	0.00	29.870 
15:05	57.5	57.5	57.5	57	42.4	1	4	90	0.00	29.870 
15:10	57.6	57.6	57.6	57	42.5	1	4	90	0.00	29.870 
15:15	57.8	57.8	57.8	58	43.1	1	3	90	0.00	29.864 
15:20	58.0	58.0	58.0	58	43.3	0	3	90	0.00	29.864 
15:25	58.3	58.3	58.3	58	43.6	1	5	90	0.00	29.864 
15:30	58.3	58.3	58.3	58	43.6	1	5	90	0.00	29.856 
15:35	58.3	58.3	58.3	59	44.0	1	3	135	0.00	29.856 
15:40	58.1	58.1	58.1	58	43.4	1	5	112	0.00	29.856 
15:45	58.1	58.1	58.1	58	43.4	1	3	90	0.00	29.856 
15:50	58.1	58.1	58.1	58	43.4	1	5	90	0.00	29.856 
15:55	58.0	58.0	58.0	58	43.3	1	5	112	0.00	29.856 
16:00	57.8	57.8	57.8	58	43.1	1	5	135	0.00	29.855 
16:05	57.5	57.5	57.5	58	42.8	1	4	158	0.00	29.855 
16:10	57.5	57.5	57.5	58	42.8	1	4	135	0.00	29.855 
16:15	57.3	57.3	57.3	58	42.6	1	5	90	0.00	29.847 
16:20	57.2	57.2	57.2	59	43.0	1	3	90	0.00	29.847 
16:25	57.0	57.0	57.0	60	43.3	0	2	112	0.00	29.847 
16:30	56.9	56.9	56.9	60	43.2	0	3	112	0.00	29.842 
16:35	56.7	56.7	56.7	60	43.0	1	4	45	0.00	29.842 
16:40	56.5	56.5	56.5	59	42.3	2	5	112	0.00	29.842 
16:45	56.3	56.3	56.3	59	42.2	1	4	135	0.00	29.836 
16:50	56.2	56.2	56.2	60	42.5	1	5	112	0.00	29.836 
16:55	56.0	56.0	56.0	60	42.3	1	6	112	0.00	29.836 
17:00	55.7	55.7	55.7	61	42.5	0	2	112	0.00	29.830 
17:05	55.4	55.4	55.4	63	43.0	0	2	135	0.00	29.830 
17:10	55.0	55.0	55.0	65	43.5	0	3	90	0.00	29.830 
17:15	54.7	54.7	54.7	65	43.2	1	3	90	0.00	29.828 
17:20	54.4	54.4	54.4	66	43.3	0	2	112	0.00	29.828 
17:25	54.1	54.1	54.1	66	43.0	0	3	90	0.00	29.828 
17:30	53.6	53.6	53.6	67	42.9	0	2	112	0.00	29.828 
17:35	53.3	53.3	53.3	68	43.0	0	2	112	0.00	29.828 
17:40	53.1	53.1	53.1	69	43.2	0	2	112	0.00	29.828 
17:45	52.6	52.6	52.6	70	43.1	1	3	90	0.00	29.819 
17:50	52.3	52.3	52.3	70	42.8	0	3	90	0.00	29.819 
17:55	52.2	52.2	52.2	71	43.1	0	2	90	0.00	29.819 
18:00	51.9	51.9	51.9	71	42.8	1	2	90	0.00	29.816 
18:05	51.9	51.9	51.9	70	42.4	1	6	90	0.00	29.816 
18:10	51.9	51.9	51.9	70	42.4	1	6	112	0.00	29.816 
18:15	51.7	51.7	51.7	70	42.2	0	2	112	0.00	29.810 
18:20	51.6	51.6	51.6	71	42.5	0	1	112	0.00	29.810 
18:25	51.3	51.3	51.3	72	42.6	0	2	112	0.00	29.810 
18:30	51.1	51.1	51.1	72	42.4	0	2	112	0.00	29.800 
18:35	51.0	51.0	51.0	72	42.3	0	2	112	0.00	29.800 
18:40	50.8	50.8	50.8	73	42.5	0	1	135	0.00	29.800 
18:45	50.7	50.7	50.7	73	42.4	0	1	135	0.00	29.790 
18:50	50.4	50.4	50.4	74	42.4	0	1	135	0.00	29.790 
18:55	50.2	50.2	50.2	74	42.2	0	2	135	0.00	29.790 
19:00	50.1	50.1	50.1	75	42.5	0	1	135	0.00	29.786 
19:05	49.9	49.9	49.9	75	42.3	0	1	135	0.00	29.786 
19:10	49.8	49.8	49.8	75	42.2	1	4	135	0.00	29.786 
19:15	49.6	49.6	49.6	76	42.3	0	2	135	0.00	29.767 
19:20	49.5	49.5	49.5	76	42.3	0	1	135	0.00	29.767 
19:25	49.5	49.5	49.5	76	42.3	0	2	135	0.00	29.767 
19:30	49.4	49.4	49.4	76	42.2	0	2	135	0.00	29.773 
19:35	49.4	49.4	49.4	76	42.2	0	2	135	0.00	29.773 
19:40	49.5	49.5	49.5	75	41.9	1	3	135	0.00	29.773 
19:45	49.6	49.6	49.6	75	42.0	1	3	135	0.00	29.754 
19:50	49.8	49.8	49.8	74	41.9	1	3	68	0.00	29.754 
19:55	50.1	50.1	50.1	73	41.8	0	5	112	0.00	29.754 
20:00	50.4	50.4	50.4	73	42.1	1	3	112	0.00	29.756 
20:05	50.7	50.7	50.7	72	42.0	0	2	112	0.00	29.756 
20:10	51.0	51.0	51.0	71	41.9	1	4	90	0.00	29.756 
20:15	51.3	51.3	51.3	70	41.9	1	6	135	0.00	29.750 
20:20	51.6	51.6	51.6	70	42.1	1	3	68	0.00	29.750 
20:25	51.7	51.7	51.7	71	42.6	1	7	112	0.00	29.750 
20:30	51.9	51.9	51.9	71	42.8	1	4	90	0.00	29.747 
20:35	51.9	51.9	51.9	70	42.4	1	4	112	0.00	29.747 
20:40	51.9	51.9	51.9	70	42.4	2	7	135	0.00	29.747 
20:45	52.0	52.0	52.0	70	42.5	1	4	90	0.00	29.733 
20:50	52.0	52.0	52.0	69	42.1	1	4	112	0.00	29.733 
20:55	52.0	52.0	52.0	69	42.1	2	11	90	0.00	29.733 
21:00	52.0	52.0	52.0	69	42.1	2	7	112	0.00	29.678 
21:05	52.0	52.0	52.0	70	42.5	1	6	112	0.00	29.678 
21:10	52.0	52.0	52.0	69	42.1	2	5	90	0.00	29.678 
21:15	52.2	52.2	52.2	69	42.3	2	4	112	0.00	29.688 
21:20	52.2	52.2	52.2	68	42.0	2	7	90	0.00	29.688 
21:25	52.3	52.3	52.3	68	42.1	1	6	68	0.00	29.688 
21:30	52.5	52.5	52.5	68	42.2	1	4	135	0.00	29.683 
21:35	52.5	52.5	52.5	69	42.6	1	6	112	0.00	29.683 
21:40	52.3	52.3	52.3	70	42.8	2	5	68	0.00	29.683 
21:45	52.0	52.0	52.0	71	42.9	2	7	68	0.00	29.673 
21:50	51.7	51.7	51.7	71	42.6	2	10	112	0.00	29.673 
21:55	51.7	51.7	51.7	71	42.6	2	6	90	0.00	29.673 
22:00	51.6	51.6	51.6	70	42.1	2	6	112	0.00	29.642 
22:05	51.6	51.6	51.6	70	42.1	2	12	112	0.00	29.642 
22:10	51.4	51.4	51.4	70	41.9	2	10	90	0.00	29.642 
22:15	51.4	51.4	51.4	70	41.9	2	5	112	0.00	29.613 
22:20	51.3	51.3	51.3	71	42.2	2	6	90	0.00	29.613 
22:25	51.3	51.3	51.3	71	42.2	1	5	90	0.00	29.613 
22:30	51.1	51.1	51.1	71	42.0	1	5	90	0.00	29.613 
22:35	51.1	51.1	51.1	71	42.0	1	3	112	0.00	29.613 
22:40	51.1	51.1	51.1	70	41.7	2	10	90	0.00	29.613 
22:45	51.3	51.3	51.3	70	41.9	1	5	112	0.00	29.613 
22:50	51.3	51.3	51.3	70	41.9	1	3	90	0.00	29.613 
22:55	51.4	51.4	51.4	69	41.6	1	5	135	0.00	29.613 
23:00	51.4	51.4	51.4	69	41.6	1	4	90	0.00	29.604 
23:05	51.6	51.6	51.6	68	41.4	1	5	112	0.00	29.604 
23:10	51.7	51.7	51.7	68	41.5	1	4	68	0.00	29.604 
23:15	51.6	51.6	51.6	69	41.8	1	4	112	0.00	29.604 
23:20	51.4	51.4	51.4	69	41.6	2	5	90	0.00	29.604 
23:25	51.4	51.4	51.4	69	41.6	1	5	112	0.00	29.604 
23:30	51.4	51.4	51.4	70	41.9	1	4	90	0.00	29.604 
23:35	51.4	51.4	51.4	69	41.6	2	7	90	0.00	29.604 
23:40	51.4	51.4	51.4	69	41.6	1	4	90	0.00	29.604 
23:45	51.4	51.4	51.4	70	41.9	1	5	90	0.00	29.606 
23:50	51.4	51.4	51.4	71	42.3	1	5	68	0.00	29.606 
23:55	51.4	51.4	51.4	72	42.7	1	5	112	0.00	29.606 

CoCoRaHS
IN-AL-39
A2 Web Hosting
Creative Commons License
GoDaddy
search engine by freefind advanced

loaded 2018-11-20 09:31:06 • last modified 2010-11-18 10:43:29
Privacy PolicyDisclaimer
• wx.awcolley.com is powered by PmWiki v.2002016 •
• all content (unless otherwise noted) © 2018 A W Colley